createdAt,value
2016-12-10T00:00:54.002Z,0
2016-12-10T00:01:53.998Z,0
2016-12-10T00:02:54.284Z,0
2016-12-10T00:03:53.985Z,0
2016-12-10T00:04:53.971Z,0
2016-12-10T00:05:53.973Z,0
2016-12-10T00:06:54.259Z,0
2016-12-10T00:07:53.945Z,0
2016-12-10T00:08:53.934Z,0
2016-12-10T00:09:53.929Z,0
2016-12-10T00:10:53.922Z,0
2016-12-10T00:11:53.915Z,0
2016-12-10T00:12:53.908Z,0
2016-12-10T00:13:53.902Z,0
2016-12-10T00:14:53.892Z,0
2016-12-10T00:15:53.906Z,0
2016-12-10T00:16:53.876Z,0
2016-12-10T00:17:53.862Z,0
2016-12-10T00:18:53.854Z,0
2016-12-10T00:19:53.841Z,0
2016-12-10T00:20:53.837Z,0
2016-12-10T00:21:53.835Z,0
2016-12-10T00:22:53.824Z,0
2016-12-10T00:23:53.805Z,0
2016-12-10T00:24:53.809Z,0
2016-12-10T00:25:53.805Z,0
2016-12-10T00:26:53.795Z,0
2016-12-10T00:27:53.783Z,0
2016-12-10T00:28:53.778Z,0
2016-12-10T00:29:53.773Z,0
2016-12-10T00:30:53.757Z,0
2016-12-10T00:31:53.744Z,0
2016-12-10T00:32:53.747Z,0
2016-12-10T00:33:53.734Z,0
2016-12-10T00:34:53.726Z,0
2016-12-10T00:35:53.709Z,0
2016-12-10T00:36:53.707Z,0
2016-12-10T00:37:53.694Z,0
2016-12-10T00:38:53.692Z,0
2016-12-10T00:39:53.678Z,0
2016-12-10T00:40:53.683Z,0
2016-12-10T00:41:53.666Z,0
2016-12-10T00:42:53.961Z,0
2016-12-10T00:43:53.650Z,0
2016-12-10T00:44:53.644Z,0
2016-12-10T00:45:53.631Z,0
2016-12-10T00:46:53.954Z,0
2016-12-10T00:47:53.608Z,0
2016-12-10T00:48:53.642Z,0
2016-12-10T00:49:53.599Z,0
2016-12-10T00:50:53.598Z,0
2016-12-10T00:51:53.582Z,0
2016-12-10T00:52:53.569Z,0
2016-12-10T00:53:53.574Z,0
2016-12-10T00:54:53.565Z,0
2016-12-10T00:55:53.555Z,0
2016-12-10T00:56:53.544Z,0
2016-12-10T00:57:53.543Z,0
2016-12-10T00:58:53.532Z,0
2016-12-10T00:59:53.515Z,0
2016-12-10T01:00:53.509Z,0
2016-12-10T01:01:53.507Z,0
2016-12-10T01:02:53.497Z,0
2016-12-10T01:03:53.517Z,0
2016-12-10T01:04:53.480Z,0
2016-12-10T01:05:53.774Z,0
2016-12-10T01:06:53.471Z,0
2016-12-10T01:07:53.455Z,0
2016-12-10T01:08:53.452Z,0
2016-12-10T01:09:53.437Z,0
2016-12-10T01:10:53.429Z,0
2016-12-10T01:11:53.423Z,0
2016-12-10T01:12:53.414Z,0
2016-12-10T01:13:53.408Z,0
2016-12-10T01:14:53.402Z,0
2016-12-10T01:15:53.391Z,0
2016-12-10T01:16:53.386Z,0
2016-12-10T01:17:53.378Z,0
2016-12-10T01:18:53.356Z,0
2016-12-10T01:19:53.360Z,0
2016-12-10T01:20:53.350Z,0
2016-12-10T01:21:53.340Z,0
2016-12-10T01:22:53.336Z,0
2016-12-10T01:23:53.321Z,0
2016-12-10T01:24:53.320Z,0
2016-12-10T01:25:53.314Z,0
2016-12-10T01:26:53.299Z,0
2016-12-10T01:27:53.595Z,0
2016-12-10T01:28:53.281Z,0
2016-12-10T01:29:53.278Z,0
2016-12-10T01:30:53.263Z,0
2016-12-10T01:31:53.262Z,0
2016-12-10T01:32:53.259Z,0
2016-12-10T01:33:53.246Z,0
2016-12-10T01:34:53.229Z,0
2016-12-10T01:35:53.223Z,0
2016-12-10T01:36:53.217Z,0
2016-12-10T01:37:53.505Z,0
2016-12-10T01:38:53.210Z,0
2016-12-10T01:39:53.223Z,0
2016-12-10T01:40:53.182Z,0
2016-12-10T01:41:53.176Z,0
2016-12-10T01:42:53.167Z,0
2016-12-10T01:43:53.158Z,0
2016-12-10T01:44:53.155Z,0
2016-12-10T01:45:53.149Z,0
2016-12-10T01:46:53.132Z,0
2016-12-10T01:47:53.127Z,0
2016-12-10T01:48:53.116Z,0
2016-12-10T01:49:53.115Z,0
2016-12-10T01:50:53.109Z,0
2016-12-10T01:51:53.095Z,0
2016-12-10T01:52:53.391Z,0
2016-12-10T01:53:53.069Z,0
2016-12-10T01:54:53.095Z,0
2016-12-10T01:55:53.057Z,0
2016-12-10T01:56:53.050Z,0
2016-12-10T01:57:53.054Z,0
2016-12-10T01:58:53.034Z,0
2016-12-10T01:59:53.023Z,0
2016-12-10T02:00:53.016Z,0
2016-12-10T02:01:53.320Z,0
2016-12-10T02:02:53.000Z,0
2016-12-10T02:03:53.286Z,0
2016-12-10T02:04:52.979Z,0
2016-12-10T02:05:52.967Z,0
2016-12-10T02:06:52.965Z,0
2016-12-10T02:07:52.966Z,0
2016-12-10T02:08:52.948Z,0
2016-12-10T02:09:52.943Z,0
2016-12-10T02:10:52.934Z,0
2016-12-10T02:11:52.940Z,0
2016-12-10T02:12:52.916Z,0
2016-12-10T02:13:52.898Z,0
2016-12-10T02:14:52.891Z,0
2016-12-10T02:15:52.891Z,0
2016-12-10T02:16:52.893Z,0
2016-12-10T02:17:52.869Z,0
2016-12-10T02:18:52.869Z,0
2016-12-10T02:19:52.858Z,0
2016-12-10T02:20:52.845Z,0
2016-12-10T02:21:52.842Z,0
2016-12-10T02:22:52.838Z,0
2016-12-10T02:23:52.823Z,0
2016-12-10T02:24:52.815Z,0
2016-12-10T02:25:52.812Z,0
2016-12-10T02:26:52.802Z,0
2016-12-10T02:27:52.793Z,0
2016-12-10T02:28:52.785Z,0
2016-12-10T02:29:52.774Z,0
2016-12-10T02:30:52.768Z,0
2016-12-10T02:31:52.767Z,0
2016-12-10T02:32:52.750Z,0
2016-12-10T02:33:52.744Z,0
2016-12-10T02:34:52.737Z,0
2016-12-10T02:35:52.725Z,0
2016-12-10T02:36:52.720Z,0
2016-12-10T02:37:52.713Z,0
2016-12-10T02:38:52.703Z,0
2016-12-10T02:39:52.700Z,0
2016-12-10T02:40:52.692Z,0
2016-12-10T02:41:52.682Z,0
2016-12-10T02:42:52.674Z,0
2016-12-10T02:43:52.660Z,0
2016-12-10T02:44:52.656Z,0
2016-12-10T02:45:52.648Z,0
2016-12-10T02:46:52.642Z,0
2016-12-10T02:47:52.630Z,0
2016-12-10T02:48:52.628Z,0
2016-12-10T02:49:52.619Z,0
2016-12-10T02:50:52.610Z,0
2016-12-10T02:51:52.595Z,0
2016-12-10T02:52:52.623Z,0
2016-12-10T02:53:52.611Z,0
2016-12-10T02:54:52.568Z,0
2016-12-10T02:55:52.565Z,0
2016-12-10T02:56:52.558Z,0
2016-12-10T02:57:52.547Z,0
2016-12-10T02:58:52.541Z,0
2016-12-10T02:59:52.535Z,0
2016-12-10T03:00:53.130Z,0
2016-12-10T03:01:52.509Z,0
2016-12-10T03:02:52.510Z,0
2016-12-10T03:03:52.503Z,0
2016-12-10T03:04:52.490Z,0
2016-12-10T03:05:52.484Z,0
2016-12-10T03:06:52.478Z,0
2016-12-10T03:07:52.468Z,0
2016-12-10T03:08:52.465Z,0
2016-12-10T03:09:52.448Z,0
2016-12-10T03:10:52.446Z,0
2016-12-10T03:11:52.431Z,0
2016-12-10T03:12:52.427Z,0
2016-12-10T03:13:52.419Z,0
2016-12-10T03:14:52.408Z,0
2016-12-10T03:15:52.404Z,0
2016-12-10T03:16:52.393Z,0
2016-12-10T03:17:52.682Z,0
2016-12-10T03:18:52.380Z,0
2016-12-10T03:19:52.377Z,0
2016-12-10T03:20:52.389Z,0
2016-12-10T03:21:52.655Z,0
2016-12-10T03:22:52.347Z,0
2016-12-10T03:23:52.336Z,0
2016-12-10T03:24:52.324Z,0
2016-12-10T03:25:52.318Z,0
2016-12-10T03:26:52.313Z,0
2016-12-10T03:27:52.300Z,0
2016-12-10T03:28:52.290Z,0
2016-12-10T03:29:52.285Z,0
2016-12-10T03:30:52.291Z,0
2016-12-10T03:31:52.266Z,0
2016-12-10T03:32:52.259Z,0
2016-12-10T03:33:52.247Z,0
2016-12-10T03:34:52.239Z,0
2016-12-10T03:35:52.233Z,0
2016-12-10T03:36:52.237Z,0
2016-12-10T03:37:52.219Z,0
2016-12-10T03:38:52.216Z,0
2016-12-10T03:39:52.205Z,0
2016-12-10T03:40:52.197Z,0
2016-12-10T03:41:52.189Z,0
2016-12-10T03:42:52.182Z,0
2016-12-10T03:43:52.174Z,0
2016-12-10T03:44:52.166Z,0
2016-12-10T03:45:52.151Z,0
2016-12-10T03:46:52.139Z,0
2016-12-10T03:47:52.137Z,0
2016-12-10T03:48:52.134Z,0
2016-12-10T03:49:52.120Z,0
2016-12-10T03:50:52.113Z,0
2016-12-10T03:51:52.105Z,0
2016-12-10T03:52:52.103Z,0
2016-12-10T03:53:52.093Z,0
2016-12-10T03:54:52.078Z,0
2016-12-10T03:55:52.075Z,0
2016-12-10T03:56:52.068Z,0
2016-12-10T03:57:52.063Z,0
2016-12-10T03:58:52.056Z,0
2016-12-10T03:59:52.038Z,0
2016-12-10T04:00:52.038Z,0
2016-12-10T04:01:52.024Z,0
2016-12-10T04:02:52.013Z,0
2016-12-10T04:03:52.011Z,0
2016-12-10T04:04:51.997Z,0
2016-12-10T04:05:51.994Z,0
2016-12-10T04:06:51.985Z,0
2016-12-10T04:07:51.983Z,0
2016-12-10T04:08:51.968Z,0
2016-12-10T04:09:51.956Z,0
2016-12-10T04:10:51.956Z,0
2016-12-10T04:11:51.938Z,0
2016-12-10T04:12:51.936Z,0
2016-12-10T04:13:51.929Z,0
2016-12-10T04:14:51.914Z,0
2016-12-10T04:15:51.901Z,0
2016-12-10T04:16:51.899Z,0
2016-12-10T04:17:51.892Z,0
2016-12-10T04:18:51.883Z,0
2016-12-10T04:19:51.870Z,0
2016-12-10T04:20:51.864Z,0
2016-12-10T04:21:51.863Z,0
2016-12-10T04:22:51.845Z,0
2016-12-10T04:23:51.843Z,0
2016-12-10T04:24:51.828Z,0
2016-12-10T04:25:51.827Z,0
2016-12-10T04:26:51.814Z,0
2016-12-10T04:27:51.822Z,0
2016-12-10T04:28:51.827Z,0
2016-12-10T04:29:51.789Z,0
2016-12-10T04:30:51.783Z,0
2016-12-10T04:31:51.773Z,0
2016-12-10T04:32:51.766Z,0
2016-12-10T04:33:51.755Z,0
2016-12-10T04:34:52.049Z,0
2016-12-10T04:35:51.738Z,0
2016-12-10T04:36:51.725Z,0
2016-12-10T04:37:51.725Z,0
2016-12-10T04:38:51.719Z,0
2016-12-10T04:39:51.716Z,0
2016-12-10T04:40:51.702Z,0
2016-12-10T04:41:51.684Z,0
2016-12-10T04:42:51.678Z,0
2016-12-10T04:43:51.669Z,0
2016-12-10T04:44:51.661Z,0
2016-12-10T04:45:51.654Z,0
2016-12-10T04:46:51.639Z,0
2016-12-10T04:47:51.637Z,0
2016-12-10T04:48:51.630Z,0
2016-12-10T04:49:51.615Z,0
2016-12-10T04:50:51.612Z,0
2016-12-10T04:51:51.596Z,0
2016-12-10T04:52:51.597Z,0
2016-12-10T04:53:51.584Z,0
2016-12-10T04:54:51.584Z,0
2016-12-10T04:55:51.560Z,0
2016-12-10T04:56:51.560Z,0
2016-12-10T04:57:51.551Z,0
2016-12-10T04:58:51.542Z,0
2016-12-10T04:59:51.527Z,0
2016-12-10T05:00:51.528Z,0
2016-12-10T05:01:51.514Z,0
2016-12-10T05:02:51.514Z,0
2016-12-10T05:03:51.496Z,0
2016-12-10T05:04:51.485Z,0
2016-12-10T05:05:51.777Z,0
2016-12-10T05:06:51.470Z,0
2016-12-10T05:07:51.464Z,0
2016-12-10T05:08:51.457Z,0
2016-12-10T05:09:51.454Z,0
2016-12-10T05:10:51.436Z,0
2016-12-10T05:11:51.434Z,0
2016-12-10T05:12:51.426Z,0
2016-12-10T05:13:51.417Z,0
2016-12-10T05:14:51.397Z,0
2016-12-10T05:15:51.704Z,0
2016-12-10T05:16:51.382Z,0
2016-12-10T05:17:51.374Z,0
2016-12-10T05:18:51.370Z,0
2016-12-10T05:19:51.362Z,0
2016-12-10T05:20:51.348Z,0
2016-12-10T05:21:51.341Z,0
2016-12-10T05:22:51.333Z,0
2016-12-10T05:23:51.318Z,0
2016-12-10T05:24:51.316Z,0
2016-12-10T05:25:51.304Z,0
2016-12-10T05:26:51.305Z,0
2016-12-10T05:27:51.286Z,0
2016-12-10T05:28:51.278Z,0
2016-12-10T05:29:51.306Z,0
2016-12-10T05:30:51.257Z,0
2016-12-10T05:31:51.257Z,0
2016-12-10T05:32:51.241Z,0
2016-12-10T05:33:51.541Z,0
2016-12-10T05:34:51.221Z,0
2016-12-10T05:35:51.223Z,0
2016-12-10T05:36:51.207Z,0
2016-12-10T05:37:51.235Z,0
2016-12-10T05:38:51.194Z,0
2016-12-10T05:39:51.180Z,0
2016-12-10T05:40:51.173Z,0
2016-12-10T05:41:51.169Z,0
2016-12-10T05:42:51.154Z,0
2016-12-10T05:43:51.156Z,0
2016-12-10T05:44:51.136Z,0
2016-12-10T05:45:51.133Z,0
2016-12-10T05:46:51.124Z,0
2016-12-10T05:47:51.113Z,0
2016-12-10T05:48:51.102Z,0
2016-12-10T05:49:51.096Z,0
2016-12-10T05:50:51.086Z,0
2016-12-10T05:51:51.081Z,0
2016-12-10T05:52:51.071Z,0
2016-12-10T05:53:51.064Z,0
2016-12-10T05:54:51.055Z,0
2016-12-10T05:55:51.044Z,0
2016-12-10T05:56:51.029Z,0
2016-12-10T05:57:51.027Z,0
2016-12-10T05:58:51.023Z,0
2016-12-10T05:59:51.002Z,0
2016-12-10T06:00:51.007Z,0
2016-12-10T06:01:50.996Z,0
2016-12-10T06:02:50.986Z,0
2016-12-10T06:03:50.970Z,0
2016-12-10T06:04:50.966Z,0
2016-12-10T06:05:50.957Z,0
2016-12-10T06:06:50.946Z,0
2016-12-10T06:07:50.937Z,0
2016-12-10T06:08:50.927Z,0
2016-12-10T06:09:50.923Z,0
2016-12-10T06:10:50.933Z,0
2016-12-10T06:11:50.903Z,0
2016-12-10T06:12:50.891Z,0
2016-12-10T06:13:50.887Z,0
2016-12-10T06:14:50.901Z,0
2016-12-10T06:15:50.862Z,0
2016-12-10T06:16:50.859Z,0
2016-12-10T06:17:50.849Z,0
2016-12-10T06:18:50.837Z,0
2016-12-10T06:19:50.833Z,0
2016-12-10T06:20:50.816Z,0
2016-12-10T06:21:50.818Z,0
2016-12-10T06:22:50.806Z,0
2016-12-10T06:23:50.790Z,0
2016-12-10T06:24:50.782Z,0
2016-12-10T06:25:50.779Z,0
2016-12-10T06:26:50.771Z,0
2016-12-10T06:27:50.756Z,0
2016-12-10T06:28:50.748Z,0
2016-12-10T06:29:50.736Z,0
2016-12-10T06:30:50.728Z,0
2016-12-10T06:31:50.718Z,0
2016-12-10T06:32:50.707Z,0
2016-12-10T06:33:50.706Z,0
2016-12-10T06:34:50.696Z,0
2016-12-10T06:35:50.694Z,4
2016-12-10T06:36:50.675Z,4
2016-12-10T06:37:50.668Z,4
2016-12-10T06:38:50.660Z,4
2016-12-10T06:39:50.645Z,4
2016-12-10T06:40:50.631Z,4
2016-12-10T06:41:50.639Z,4
2016-12-10T06:42:50.621Z,8
2016-12-10T06:43:50.607Z,8
2016-12-10T06:44:50.605Z,12
2016-12-10T06:45:50.589Z,12
2016-12-10T06:46:50.588Z,12
2016-12-10T06:47:50.576Z,16
2016-12-10T06:48:50.571Z,20
2016-12-10T06:49:50.558Z,20
2016-12-10T06:50:50.580Z,24
2016-12-10T06:51:50.548Z,28
2016-12-10T06:52:50.534Z,32
2016-12-10T06:53:50.522Z,32
2016-12-10T06:54:50.515Z,40
2016-12-10T06:55:50.500Z,40
2016-12-10T06:56:50.497Z,48
2016-12-10T06:57:50.491Z,60
2016-12-10T06:58:50.493Z,68
2016-12-10T06:59:50.459Z,72
2016-12-10T07:00:50.461Z,84
2016-12-10T07:01:50.488Z,92
2016-12-10T07:02:50.438Z,96
2016-12-10T07:03:50.424Z,104
2016-12-10T07:04:50.728Z,112
2016-12-10T07:05:50.406Z,128
2016-12-10T07:06:50.407Z,140
2016-12-10T07:07:50.402Z,152
2016-12-10T07:08:50.697Z,168
2016-12-10T07:09:50.379Z,180
2016-12-10T07:10:50.371Z,196
2016-12-10T07:11:50.360Z,212
2016-12-10T07:12:50.354Z,228
2016-12-10T07:13:50.346Z,252
2016-12-10T07:14:50.340Z,276
2016-12-10T07:15:50.625Z,292
2016-12-10T07:16:50.323Z,316
2016-12-10T07:17:50.308Z,336
2016-12-10T07:18:50.297Z,352
2016-12-10T07:19:50.290Z,364
2016-12-10T07:20:50.286Z,376
2016-12-10T07:21:50.276Z,392
2016-12-10T07:22:50.265Z,416
2016-12-10T07:23:50.254Z,452
2016-12-10T07:24:50.244Z,496
2016-12-10T07:25:50.241Z,536
2016-12-10T07:26:50.224Z,568
2016-12-10T07:27:50.243Z,592
2016-12-10T07:28:50.214Z,612
2016-12-10T07:29:50.205Z,632
2016-12-10T07:30:50.197Z,660
2016-12-10T07:31:50.191Z,688
2016-12-10T07:32:50.178Z,724
2016-12-10T07:33:50.170Z,776
2016-12-10T07:34:50.160Z,832
2016-12-10T07:35:50.159Z,892
2016-12-10T07:36:50.141Z,948
2016-12-10T07:37:50.127Z,1000
2016-12-10T07:38:50.122Z,1044
2016-12-10T07:39:50.116Z,1092
2016-12-10T07:40:50.102Z,1132
2016-12-10T07:41:50.105Z,1164
2016-12-10T07:42:50.086Z,1192
2016-12-10T07:43:50.083Z,1224
2016-12-10T07:44:50.072Z,1256
2016-12-10T07:45:50.070Z,1288
2016-12-10T07:46:50.049Z,1320
2016-12-10T07:47:50.047Z,1352
2016-12-10T07:48:50.040Z,1384
2016-12-10T07:49:50.027Z,1408
2016-12-10T07:50:50.026Z,1436
2016-12-10T07:51:50.005Z,1476
2016-12-10T07:52:50.304Z,1524
2016-12-10T07:53:49.989Z,1572
2016-12-10T07:54:49.981Z,1620
2016-12-10T07:55:49.976Z,1672
2016-12-10T07:56:49.974Z,1740
2016-12-10T07:57:49.963Z,1808
2016-12-10T07:58:49.949Z,1876
2016-12-10T07:59:49.943Z,1928
2016-12-10T08:00:49.932Z,1960
2016-12-10T08:01:49.919Z,1984
2016-12-10T08:02:49.918Z,2004
2016-12-10T08:03:49.908Z,1996
2016-12-10T08:04:49.898Z,1992
2016-12-10T08:05:49.888Z,1960
2016-12-10T08:06:49.880Z,1924
2016-12-10T08:07:50.166Z,1884
2016-12-10T08:08:49.868Z,1860
2016-12-10T08:09:49.848Z,1856
2016-12-10T08:10:49.848Z,1868
2016-12-10T08:11:49.833Z,1888
2016-12-10T08:12:49.833Z,1936
2016-12-10T08:13:49.821Z,2012
2016-12-10T08:14:49.825Z,2084
2016-12-10T08:15:49.804Z,2148
2016-12-10T08:16:49.801Z,2212
2016-12-10T08:17:49.789Z,2284
2016-12-10T08:18:49.779Z,2364
2016-12-10T08:19:49.763Z,2444
2016-12-10T08:20:49.762Z,2528
2016-12-10T08:21:49.768Z,2612
2016-12-10T08:22:49.747Z,2696
2016-12-10T08:23:49.730Z,2780
2016-12-10T08:24:49.739Z,2864
2016-12-10T08:25:49.720Z,2964
2016-12-10T08:26:49.718Z,3112
2016-12-10T08:27:50.007Z,3292
2016-12-10T08:28:49.702Z,3460
2016-12-10T08:29:49.689Z,3588
2016-12-10T08:30:49.681Z,3672
2016-12-10T08:31:49.665Z,3704
2016-12-10T08:32:49.669Z,3696
2016-12-10T08:33:49.654Z,3676
2016-12-10T08:34:49.646Z,3672
2016-12-10T08:35:49.642Z,3672
2016-12-10T08:36:49.632Z,3668
2016-12-10T08:37:49.632Z,3668
2016-12-10T08:38:49.613Z,3676
2016-12-10T08:39:49.605Z,3696
2016-12-10T08:40:49.603Z,3756
2016-12-10T08:41:49.597Z,3824
2016-12-10T08:42:49.881Z,3900
2016-12-10T08:43:49.582Z,3976
2016-12-10T08:44:49.567Z,4036
2016-12-10T08:45:49.556Z,4088
2016-12-10T08:46:49.863Z,4140
2016-12-10T08:47:49.548Z,4192
2016-12-10T08:48:49.839Z,4244
2016-12-10T08:49:49.566Z,4300
2016-12-10T08:50:49.534Z,4344
2016-12-10T08:51:49.515Z,4396
2016-12-10T08:52:49.513Z,4444
2016-12-10T08:53:49.500Z,4496
2016-12-10T08:54:49.490Z,4548
2016-12-10T08:55:49.478Z,4596
2016-12-10T08:56:49.482Z,4652
2016-12-10T08:57:49.471Z,4716
2016-12-10T08:58:49.457Z,4784
2016-12-10T08:59:49.453Z,4856
2016-12-10T09:00:49.447Z,4928
2016-12-10T09:01:49.439Z,5000
2016-12-10T09:02:49.436Z,5060
2016-12-10T09:03:49.425Z,5104
2016-12-10T09:04:49.418Z,5140
2016-12-10T09:05:49.708Z,5160
2016-12-10T09:06:49.406Z,5176
2016-12-10T09:07:49.394Z,5148
2016-12-10T09:08:49.384Z,5096
2016-12-10T09:09:49.381Z,5012
2016-12-10T09:10:49.396Z,4920
2016-12-10T09:11:49.359Z,4832
2016-12-10T09:12:49.361Z,4740
2016-12-10T09:13:49.344Z,4636
2016-12-10T09:14:49.347Z,4528
2016-12-10T09:15:49.332Z,4448
2016-12-10T09:16:49.331Z,4416
2016-12-10T09:17:49.318Z,4436
2016-12-10T09:18:49.322Z,4508
2016-12-10T09:19:49.313Z,4596
2016-12-10T09:20:49.313Z,4676
2016-12-10T09:21:49.603Z,4760
2016-12-10T09:22:49.281Z,4880
2016-12-10T09:23:49.285Z,5012
2016-12-10T09:24:49.571Z,5104
2016-12-10T09:25:49.261Z,5168
2016-12-10T09:26:49.251Z,5224
2016-12-10T09:27:49.241Z,5280
2016-12-10T09:28:49.234Z,5316
2016-12-10T09:29:49.534Z,5340
2016-12-10T09:30:49.224Z,5344
2016-12-10T09:31:49.216Z,5356
2016-12-10T09:32:49.207Z,5388
2016-12-10T09:33:49.201Z,5436
2016-12-10T09:34:49.192Z,5452
2016-12-10T09:35:49.191Z,5396
2016-12-10T09:36:49.178Z,5332
2016-12-10T09:37:49.171Z,5308
2016-12-10T09:38:49.173Z,5360
2016-12-10T09:39:49.162Z,5444
2016-12-10T09:40:49.154Z,5520
2016-12-10T09:41:49.142Z,5560
2016-12-10T09:42:49.139Z,5600
2016-12-10T09:43:49.130Z,5600
2016-12-10T09:44:49.133Z,5540
2016-12-10T09:45:49.122Z,5468
2016-12-10T09:46:49.115Z,5408
2016-12-10T09:47:49.109Z,5404
2016-12-10T09:48:49.098Z,5472
2016-12-10T09:49:49.096Z,5600
2016-12-10T09:50:49.086Z,5684
2016-12-10T09:51:49.085Z,5644
2016-12-10T09:52:49.077Z,5528
2016-12-10T09:53:49.360Z,5352
2016-12-10T09:54:49.069Z,5200
2016-12-10T09:55:49.056Z,5116
2016-12-10T09:56:49.052Z,5012
2016-12-10T09:57:49.044Z,4872
2016-12-10T09:58:49.334Z,4808
2016-12-10T09:59:49.028Z,4820
2016-12-10T10:00:49.023Z,4936
2016-12-10T10:01:49.017Z,5148
2016-12-10T10:02:49.039Z,5364
2016-12-10T10:03:49.009Z,5588
2016-12-10T10:04:48.996Z,5736
2016-12-10T10:05:48.994Z,5788
2016-12-10T10:06:49.008Z,5812
2016-12-10T10:07:48.984Z,5824
2016-12-10T10:08:48.977Z,5848
2016-12-10T10:09:48.971Z,5920
2016-12-10T10:10:48.963Z,5996
2016-12-10T10:11:48.952Z,6028
2016-12-10T10:12:48.944Z,6080
2016-12-10T10:13:48.941Z,6152
2016-12-10T10:14:48.935Z,6224
2016-12-10T10:15:48.925Z,6252
2016-12-10T10:16:48.923Z,6240
2016-12-10T10:17:48.909Z,6168
2016-12-10T10:18:48.915Z,6092
2016-12-10T10:19:48.909Z,6116
2016-12-10T10:20:49.201Z,6196
2016-12-10T10:21:48.894Z,6280
2016-12-10T10:22:48.883Z,6360
2016-12-10T10:23:48.874Z,6464
2016-12-10T10:24:48.869Z,6568
2016-12-10T10:25:49.166Z,6680
2016-12-10T10:26:48.858Z,6812
2016-12-10T10:27:48.853Z,6944
2016-12-10T10:28:48.854Z,7104
2016-12-10T10:29:48.843Z,7240
2016-12-10T10:30:48.835Z,7404
2016-12-10T10:31:48.830Z,7528
2016-12-10T10:32:48.835Z,7564
2016-12-10T10:33:49.116Z,7568
2016-12-10T10:34:48.817Z,7560
2016-12-10T10:35:48.810Z,7576
2016-12-10T10:36:48.800Z,7580
2016-12-10T10:37:48.795Z,7508
2016-12-10T10:38:48.788Z,7396
2016-12-10T10:39:49.087Z,7236
2016-12-10T10:40:48.774Z,7064
2016-12-10T10:41:48.773Z,6892
2016-12-10T10:42:48.768Z,6692
2016-12-10T10:43:48.764Z,6512
2016-12-10T10:44:48.753Z,6328
2016-12-10T10:45:48.750Z,6180
2016-12-10T10:46:49.049Z,6112
2016-12-10T10:47:48.744Z,6064
2016-12-10T10:48:48.735Z,6044
2016-12-10T10:49:48.728Z,6072
2016-12-10T10:50:48.723Z,6164
2016-12-10T10:51:48.717Z,6356
2016-12-10T10:52:48.711Z,6616
2016-12-10T10:53:48.702Z,6896
2016-12-10T10:54:48.699Z,7116
2016-12-10T10:55:48.725Z,7232
2016-12-10T10:56:48.688Z,7324
2016-12-10T10:57:48.692Z,7452
2016-12-10T10:58:48.681Z,7576
2016-12-10T10:59:48.668Z,7752
2016-12-10T11:00:48.665Z,8004
2016-12-10T11:01:48.661Z,8284
2016-12-10T11:02:48.651Z,8604
2016-12-10T11:03:48.645Z,8728
2016-12-10T11:04:48.639Z,8888
2016-12-10T11:05:48.637Z,8912
2016-12-10T11:06:48.628Z,8736
2016-12-10T11:07:48.627Z,8392
2016-12-10T11:08:48.613Z,7896
2016-12-10T11:09:48.615Z,7276
2016-12-10T11:10:48.607Z,6632
2016-12-10T11:11:48.608Z,6252
2016-12-10T11:12:48.608Z,6108
2016-12-10T11:13:48.597Z,6012
2016-12-10T11:14:48.586Z,5952
2016-12-10T11:15:48.580Z,5896
2016-12-10T11:16:48.580Z,5792
2016-12-10T11:17:48.577Z,5704
2016-12-10T11:18:48.563Z,5628
2016-12-10T11:19:48.560Z,5648
2016-12-10T11:20:48.558Z,5760
2016-12-10T11:21:48.560Z,5932
2016-12-10T11:22:48.547Z,6088
2016-12-10T11:23:48.546Z,6176
2016-12-10T11:24:48.531Z,6168
2016-12-10T11:25:48.532Z,6080
2016-12-10T11:26:48.523Z,5960
2016-12-10T11:27:48.517Z,5852
2016-12-10T11:28:48.514Z,5816
2016-12-10T11:29:48.508Z,5772
2016-12-10T11:30:48.501Z,5700
2016-12-10T11:31:48.491Z,5560
2016-12-10T11:32:48.487Z,5384
2016-12-10T11:33:48.481Z,5384
2016-12-10T11:34:48.480Z,5524
2016-12-10T11:35:48.475Z,5696
2016-12-10T11:36:48.473Z,5892
2016-12-10T11:37:48.475Z,6032
2016-12-10T11:38:48.455Z,6120
2016-12-10T11:39:48.756Z,6172
2016-12-10T11:40:48.453Z,6220
2016-12-10T11:41:48.445Z,6300
2016-12-10T11:42:48.438Z,6408
2016-12-10T11:43:48.433Z,6500
2016-12-10T11:44:48.430Z,6528
2016-12-10T11:45:48.429Z,6504
2016-12-10T11:46:48.420Z,6476
2016-12-10T11:47:48.411Z,6432
2016-12-10T11:48:48.411Z,6328
2016-12-10T11:49:48.400Z,6088
2016-12-10T11:50:48.392Z,5700
2016-12-10T11:51:48.390Z,5376
2016-12-10T11:52:48.389Z,5304
2016-12-10T11:53:48.381Z,5488
2016-12-10T11:54:48.379Z,5680
2016-12-10T11:55:48.373Z,5648
2016-12-10T11:56:48.366Z,5596
2016-12-10T11:57:48.364Z,5684
2016-12-10T11:58:48.352Z,5964
2016-12-10T11:59:48.352Z,6292
2016-12-10T12:00:48.343Z,6512
2016-12-10T12:01:48.340Z,6624
2016-12-10T12:02:48.369Z,6608
2016-12-10T12:03:48.335Z,6468
2016-12-10T12:04:48.621Z,6228
2016-12-10T12:05:48.320Z,5996
2016-12-10T12:06:48.317Z,5800
2016-12-10T12:07:48.307Z,5672
2016-12-10T12:08:48.301Z,5756
2016-12-10T12:09:48.299Z,5840
2016-12-10T12:10:48.291Z,5824
2016-12-10T12:11:48.292Z,5768
2016-12-10T12:12:48.582Z,5660
2016-12-10T12:13:48.271Z,5512
2016-12-10T12:14:48.302Z,5420
2016-12-10T12:15:48.264Z,5360
2016-12-10T12:16:48.261Z,5264
2016-12-10T12:17:48.252Z,5320
2016-12-10T12:18:48.254Z,5112
2016-12-10T12:19:48.250Z,4716
2016-12-10T12:20:48.245Z,4460
2016-12-10T12:21:48.235Z,4368
2016-12-10T12:22:48.233Z,4420
2016-12-10T12:23:48.230Z,4280
2016-12-10T12:24:48.221Z,3908
2016-12-10T12:25:48.211Z,3700
2016-12-10T12:26:48.210Z,3836
2016-12-10T12:27:48.508Z,3936
2016-12-10T12:28:48.199Z,3872
2016-12-10T12:29:48.202Z,3524
2016-12-10T12:30:48.488Z,3312
2016-12-10T12:31:48.181Z,3224
2016-12-10T12:32:48.183Z,3052
2016-12-10T12:33:48.169Z,2892
2016-12-10T12:34:48.464Z,2816
2016-12-10T12:35:48.157Z,2648
2016-12-10T12:36:48.153Z,2432
2016-12-10T12:37:48.146Z,2288
2016-12-10T12:38:48.145Z,2276
2016-12-10T12:39:48.144Z,2232
2016-12-10T12:40:48.130Z,2212
2016-12-10T12:41:48.142Z,2296
2016-12-10T12:42:48.118Z,2432
2016-12-10T12:43:48.119Z,2580
2016-12-10T12:44:48.112Z,2628
2016-12-10T12:45:48.104Z,2460
2016-12-10T12:46:48.094Z,2352
2016-12-10T12:47:48.099Z,2424
2016-12-10T12:48:48.086Z,2492
2016-12-10T12:49:48.092Z,2364
2016-12-10T12:50:48.076Z,2112
2016-12-10T12:51:48.070Z,1856
2016-12-10T12:52:48.065Z,1852
2016-12-10T12:53:48.069Z,1956
2016-12-10T12:54:48.053Z,1916
2016-12-10T12:55:48.355Z,1940
2016-12-10T12:56:48.043Z,1940
2016-12-10T12:57:48.045Z,1868
2016-12-10T12:58:48.039Z,1868
2016-12-10T12:59:48.339Z,1884
2016-12-10T13:00:48.023Z,1812
2016-12-10T13:01:48.017Z,1876
2016-12-10T13:02:48.319Z,1836
2016-12-10T13:03:48.003Z,1764
2016-12-10T13:04:47.994Z,1732
2016-12-10T13:05:47.991Z,1672
2016-12-10T13:06:47.983Z,1668
2016-12-10T13:07:47.980Z,1752
2016-12-10T13:08:47.978Z,1908
2016-12-10T13:09:47.969Z,1928
2016-12-10T13:10:47.958Z,1948
2016-12-10T13:11:47.960Z,1860
2016-12-10T13:12:47.955Z,1664
2016-12-10T13:13:48.253Z,1540
2016-12-10T13:14:47.938Z,1396
2016-12-10T13:15:47.939Z,1252
2016-12-10T13:16:48.267Z,1152
2016-12-10T13:17:47.919Z,1120
2016-12-10T13:18:47.905Z,1148
2016-12-10T13:19:47.910Z,1116
2016-12-10T13:20:47.911Z,956
2016-12-10T13:21:47.895Z,868
2016-12-10T13:22:47.890Z,852
2016-12-10T13:23:47.887Z,792
2016-12-10T13:24:47.876Z,720
2016-12-10T13:25:48.173Z,636
2016-12-10T13:26:47.869Z,600
2016-12-10T13:27:47.882Z,620
2016-12-10T13:28:47.858Z,668
2016-12-10T13:29:47.853Z,748
2016-12-10T13:30:47.837Z,864
2016-12-10T13:31:47.833Z,896
2016-12-10T13:32:48.122Z,828
2016-12-10T13:33:47.824Z,816
2016-12-10T13:34:47.813Z,852
2016-12-10T13:35:47.803Z,808
2016-12-10T13:36:47.800Z,788
2016-12-10T13:37:47.796Z,828
2016-12-10T13:38:47.787Z,796
2016-12-10T13:39:47.787Z,708
2016-12-10T13:40:47.778Z,616
2016-12-10T13:41:47.768Z,576
2016-12-10T13:42:47.761Z,576
2016-12-10T13:43:47.765Z,536
2016-12-10T13:44:48.054Z,516
2016-12-10T13:45:48.047Z,488
2016-12-10T13:46:47.742Z,444
2016-12-10T13:47:47.738Z,416
2016-12-10T13:48:47.738Z,420
2016-12-10T13:49:47.721Z,424
2016-12-10T13:50:47.713Z,420
2016-12-10T13:51:47.705Z,404
2016-12-10T13:52:47.700Z,388
2016-12-10T13:53:47.699Z,364
2016-12-10T13:54:47.682Z,356
2016-12-10T13:55:47.688Z,332
2016-12-10T13:56:47.675Z,308
2016-12-10T13:57:47.668Z,284
2016-12-10T13:58:47.657Z,272
2016-12-10T13:59:47.656Z,260
2016-12-10T14:00:47.654Z,264
2016-12-10T14:01:47.643Z,268
2016-12-10T14:02:47.636Z,272